Time,TemperatureF,DewpointF,PressureIn,WindDirection,WindDirectionDegrees,WindSpeedMPH,WindSpeedGustMPH,Humidity,HourlyPrecipIn,Conditions,Clouds,dailyrainin,SoftwareType,DateUTC
2013-04-09 00:02:00,45.0,41.0,30.08,WSW,242,2.0,5.0,86,0.00,,,0.01,,2013-04-09 07:02:00,
2013-04-09 00:12:00,45.0,41.0,30.08,WSW,242,2.0,5.0,86,0.00,,,0.01,,2013-04-09 07:12:00,
2013-04-09 00:22:00,46.0,41.0,30.08,SSW,204,0.0,4.0,83,0.00,,,0.01,,2013-04-09 07:22:00,
2013-04-09 00:32:00,45.0,40.0,30.09,West,265,3.0,5.0,84,0.00,,,0.00,,2013-04-09 07:32:00,
2013-04-09 00:42:00,45.0,40.0,30.09,West,265,3.0,5.0,84,0.00,,,0.00,,2013-04-09 07:42:00,
2013-04-09 00:52:00,45.0,41.0,30.09,West,265,0.0,2.0,85,0.00,,,0.00,,2013-04-09 07:52:00,
2013-04-09 01:02:00,44.0,40.0,30.09,West,265,0.0,2.0,85,0.00,,,0.00,,2013-04-09 08:02:00,
2013-04-09 01:12:00,44.0,40.0,30.09,West,265,0.0,2.0,85,0.00,,,0.00,,2013-04-09 08:12:00,
2013-04-09 01:22:00,44.0,40.0,30.10,West,281,0.0,2.0,86,0.00,,,0.00,,2013-04-09 08:22:00,
2013-04-09 01:32:00,44.0,40.0,30.10,West,280,0.0,2.0,86,0.00,,,0.00,,2013-04-09 08:32:00,
2013-04-09 01:42:00,44.0,40.0,30.10,West,280,0.0,2.0,86,0.00,,,0.00,,2013-04-09 08:42:00,
2013-04-09 01:52:00,45.0,41.0,30.09,West,265,0.0,2.0,86,0.00,,,0.00,,2013-04-09 08:52:00,
2013-04-09 02:01:00,45.0,41.0,30.10,West,267,0.0,4.0,86,0.00,,,0.00,,2013-04-09 09:01:00,
2013-04-09 02:12:00,45.0,41.0,30.10,West,267,0.0,4.0,86,0.00,,,0.00,,2013-04-09 09:12:00,
2013-04-09 02:21:00,44.0,40.0,30.10,West,267,0.0,1.0,86,0.00,,,0.00,,2013-04-09 09:21:00,
2013-04-09 02:32:00,44.0,40.0,30.09,NNE,22,0.0,3.0,86,0.00,,,0.00,,2013-04-09 09:32:00,
2013-04-09 02:43:00,44.0,40.0,30.09,NNE,22,0.0,3.0,86,0.00,,,0.00,,2013-04-09 09:43:00,
2013-04-09 02:52:00,43.0,39.0,30.09,WSW,250,1.0,4.0,86,0.00,,,0.00,,2013-04-09 09:52:00,
2013-04-09 03:02:00,43.0,39.0,30.10,ENE,67,1.0,5.0,87,0.00,,,0.00,,2013-04-09 10:02:00,
2013-04-09 03:12:00,43.0,39.0,30.10,ENE,67,1.0,5.0,87,0.00,,,0.00,,2013-04-09 10:12:00,
2013-04-09 03:23:00,44.0,40.0,30.09,West,268,0.0,5.0,87,0.00,,,0.00,,2013-04-09 10:23:00,
2013-04-09 03:32:00,45.0,41.0,30.09,West,267,0.0,2.0,85,0.00,,,0.00,,2013-04-09 10:32:00,
2013-04-09 03:42:00,45.0,41.0,30.09,West,267,0.0,2.0,85,0.00,,,0.00,,2013-04-09 10:42:00,
2013-04-09 03:52:00,44.0,40.0,30.09,SW,219,1.0,6.0,85,0.00,,,0.00,,2013-04-09 10:52:00,
2013-04-09 04:02:00,44.0,40.0,30.09,WSW,242,1.0,5.0,85,0.00,,,0.00,,2013-04-09 11:02:00,
2013-04-09 04:12:00,44.0,40.0,30.09,WSW,242,1.0,5.0,85,0.00,,,0.00,,2013-04-09 11:12:00,
2013-04-09 04:22:00,44.0,40.0,30.09,SW,227,1.0,5.0,85,0.00,,,0.00,,2013-04-09 11:22:00,
2013-04-09 04:32:00,46.0,41.0,30.09,NNW,334,1.0,8.0,82,0.00,,,0.00,,2013-04-09 11:32:00,
2013-04-09 04:42:00,46.0,41.0,30.09,NNW,334,1.0,8.0,82,0.00,,,0.00,,2013-04-09 11:42:00,
2013-04-09 04:51:00,47.0,41.0,30.09,WSW,240,3.0,5.0,80,0.00,,,0.00,,2013-04-09 11:51:00,
2013-04-09 05:01:00,47.0,39.0,30.09,WSW,254,2.0,7.0,75,0.00,,,0.00,,2013-04-09 12:01:00,
2013-04-09 05:12:00,47.0,39.0,30.09,WSW,254,2.0,7.0,75,0.00,,,0.00,,2013-04-09 12:12:00,
2013-04-09 05:32:00,48.0,40.0,30.09,WSW,245,3.0,5.0,73,0.00,,,0.00,,2013-04-09 12:32:00,
2013-04-09 05:42:00,48.0,40.0,30.09,WSW,245,3.0,5.0,73,0.00,,,0.00,,2013-04-09 12:42:00,
2013-04-09 05:53:00,48.0,40.0,30.10,SW,225,2.0,6.0,73,0.00,,,0.00,,2013-04-09 12:53:00,
2013-04-09 06:02:00,47.0,39.0,30.11,SW,236,4.0,6.0,75,0.00,,,0.00,,2013-04-09 13:02:00,
2013-04-09 06:12:00,47.0,39.0,30.11,SW,236,4.0,6.0,75,0.00,,,0.00,,2013-04-09 13:12:00,
2013-04-09 06:21:00,47.0,40.0,30.11,West,271,1.0,6.0,76,0.00,,,0.00,,2013-04-09 13:21:00,
2013-04-09 06:32:00,47.0,41.0,30.11,SW,219,2.0,5.0,78,0.00,,,0.00,,2013-04-09 13:32:00,
2013-04-09 06:42:00,47.0,41.0,30.11,SW,219,2.0,5.0,78,0.00,,,0.00,,2013-04-09 13:42:00,
2013-04-09 06:53:00,46.0,40.0,30.11,WSW,249,2.0,4.0,80,0.00,,,0.00,,2013-04-09 13:53:00,
2013-04-09 07:02:00,45.0,40.0,30.12,WSW,249,0.0,4.0,81,0.00,,,0.00,,2013-04-09 14:02:00,
2013-04-09 07:11:00,45.0,40.0,30.12,WSW,249,0.0,4.0,81,0.00,,,0.00,,2013-04-09 14:11:00,
2013-04-09 07:21:00,45.0,40.0,30.12,WSW,249,0.0,4.0,82,0.00,,,0.00,,2013-04-09 14:21:00,
2013-04-09 07:31:00,45.0,40.0,30.12,WSW,249,0.0,3.0,81,0.00,,,0.00,,2013-04-09 14:31:00,
2013-04-09 07:42:00,45.0,40.0,30.12,WSW,249,0.0,3.0,81,0.00,,,0.00,,2013-04-09 14:42:00,
2013-04-09 07:51:00,47.0,40.0,30.12,SSW,204,1.0,5.0,77,0.00,,,0.00,,2013-04-09 14:51:00,
2013-04-09 08:01:00,49.0,41.0,30.13,SE,145,0.0,4.0,75,0.00,,,0.00,,2013-04-09 15:01:00,
2013-04-09 08:12:00,49.0,41.0,30.13,SE,145,0.0,4.0,75,0.00,,,0.00,,2013-04-09 15:12:00,
2013-04-09 08:21:00,50.0,41.0,30.13,SE,134,2.0,5.0,72,0.00,,,0.00,,2013-04-09 15:21:00,
2013-04-09 08:32:00,52.0,41.0,30.13,SW,223,1.0,5.0,65,0.00,,,0.00,,2013-04-09 15:32:00,
2013-04-09 08:42:00,52.0,41.0,30.13,SW,223,1.0,5.0,65,0.00,,,0.00,,2013-04-09 15:42:00,
2013-04-09 08:52:00,53.0,41.0,30.14,East,83,1.0,4.0,63,0.00,,,0.00,,2013-04-09 15:52:00,
2013-04-09 09:03:00,55.0,40.0,30.14,WSW,240,3.0,6.0,56,0.00,,,0.00,,2013-04-09 16:03:00,
2013-04-09 09:12:00,55.0,40.0,30.14,WSW,240,3.0,6.0,56,0.00,,,0.00,,2013-04-09 16:12:00,
2013-04-09 09:22:00,56.0,39.0,30.14,ESE,113,3.0,7.0,52,0.00,,,0.00,,2013-04-09 16:22:00,
2013-04-09 09:32:00,58.0,37.0,30.13,NNW,334,7.0,11.0,46,0.00,,,0.00,,2013-04-09 16:32:00,
2013-04-09 09:41:00,58.0,37.0,30.13,NNW,334,7.0,11.0,46,0.00,,,0.00,,2013-04-09 16:41:00,
2013-04-09 09:52:00,59.0,37.0,30.12,North,360,4.0,8.0,44,0.00,,,0.00,,2013-04-09 16:52:00,
2013-04-09 10:02:00,60.0,36.0,30.13,ENE,66,3.0,8.0,41,0.00,,,0.00,,2013-04-09 17:02:00,
2013-04-09 10:12:00,60.0,36.0,30.13,ENE,66,3.0,8.0,41,0.00,,,0.00,,2013-04-09 17:12:00,
2013-04-09 10:22:00,62.0,37.0,30.13,East,80,2.0,9.0,40,0.00,,,0.00,,2013-04-09 17:22:00,
2013-04-09 10:32:00,63.0,36.0,30.13,ESE,110,3.0,8.0,36,0.00,,,0.00,,2013-04-09 17:32:00,
2013-04-09 10:42:00,63.0,36.0,30.13,ESE,110,3.0,8.0,36,0.00,,,0.00,,2013-04-09 17:42:00,
2013-04-09 10:53:00,63.0,36.0,30.13,NE,40,3.0,10.0,36,0.00,,,0.00,,2013-04-09 17:53:00,
2013-04-09 11:01:00,64.0,36.0,30.13,NNW,346,7.0,13.0,35,0.00,,,0.00,,2013-04-09 18:01:00,
2013-04-09 11:12:00,64.0,36.0,30.13,NNW,346,7.0,13.0,35,0.00,,,0.00,,2013-04-09 18:12:00,
2013-04-09 11:22:00,65.0,36.0,30.13,SSE,153,3.0,7.0,34,0.00,,,0.00,,2013-04-09 18:22:00,
2013-04-09 11:42:00,66.0,37.0,30.13,ENE,73,3.0,9.0,34,0.00,,,0.00,,2013-04-09 18:42:00,
2013-04-09 11:52:00,66.0,37.0,30.14,East,94,4.0,12.0,34,0.00,,,0.00,,2013-04-09 18:52:00,
2013-04-09 12:02:00,66.0,37.0,30.14,East,94,4.0,12.0,34,0.00,,,0.00,,2013-04-09 19:02:00,
2013-04-09 12:11:00,66.0,37.0,30.14,East,94,4.0,12.0,34,0.00,,,0.00,,2013-04-09 19:11:00,
2013-04-09 12:21:00,66.0,37.0,30.14,East,94,4.0,12.0,34,0.00,,,0.00,,2013-04-09 19:21:00,
2013-04-09 12:32:00,67.0,36.0,30.13,ENE,63,4.0,11.0,32,0.00,,,0.00,,2013-04-09 19:32:00,
2013-04-09 12:42:00,67.0,36.0,30.13,ENE,63,4.0,11.0,32,0.00,,,0.00,,2013-04-09 19:42:00,
2013-04-09 12:52:00,68.0,41.0,30.12,SE,124,3.0,8.0,38,0.00,,,0.00,,2013-04-09 19:52:00,
2013-04-09 13:02:00,68.0,41.0,30.11,East,88,6.0,13.0,38,0.00,,,0.00,,2013-04-09 20:02:00,
2013-04-09 13:22:00,68.0,42.0,30.11,North,355,4.0,8.0,39,0.00,,,0.00,,2013-04-09 20:22:00,
2013-04-09 13:32:00,69.0,42.0,30.11,SE,134,5.0,10.0,38,0.00,,,0.00,,2013-04-09 20:32:00,
2013-04-09 13:42:00,69.0,42.0,30.11,SE,134,5.0,10.0,38,0.00,,,0.00,,2013-04-09 20:42:00,
2013-04-09 13:52:00,69.0,44.0,30.11,ENE,71,4.0,9.0,40,0.00,,,0.00,,2013-04-09 20:52:00,
2013-04-09 14:01:00,70.0,44.0,30.11,ENE,76,3.0,8.0,39,0.00,,,0.00,,2013-04-09 21:01:00,
2013-04-09 14:12:00,70.0,44.0,30.11,ENE,76,3.0,8.0,39,0.00,,,0.00,,2013-04-09 21:12:00,
2013-04-09 14:22:00,70.0,44.0,30.11,ENE,76,3.0,8.0,39,0.00,,,0.00,,2013-04-09 21:22:00,
2013-04-09 14:32:00,70.0,45.0,30.11,East,80,1.0,7.0,40,0.00,,,0.00,,2013-04-09 21:32:00,
2013-04-09 14:42:00,70.0,45.0,30.11,East,80,1.0,7.0,40,0.00,,,0.00,,2013-04-09 21:42:00,
2013-04-09 14:52:00,71.0,45.0,30.11,ENE,70,1.0,6.0,40,0.00,,,0.00,,2013-04-09 21:52:00,
2013-04-09 15:02:00,70.0,44.0,30.11,East,95,4.0,14.0,39,0.00,,,0.00,,2013-04-09 22:02:00,
2013-04-09 15:12:00,70.0,44.0,30.10,NE,55,2.0,5.0,39,0.00,,,0.00,,2013-04-09 22:12:00,
2013-04-09 15:22:00,70.0,44.0,30.10,NE,55,2.0,5.0,39,0.00,,,0.00,,2013-04-09 22:22:00,
2013-04-09 15:32:00,71.0,45.0,30.10,South,173,3.0,7.0,40,0.00,,,0.00,,2013-04-09 22:32:00,
2013-04-09 15:42:00,71.0,45.0,30.10,South,173,3.0,7.0,40,0.00,,,0.00,,2013-04-09 22:42:00,
2013-04-09 15:52:00,70.0,44.0,30.10,NE,36,4.0,11.0,39,0.00,,,0.00,,2013-04-09 22:52:00,
2013-04-09 16:02:00,70.0,44.0,30.10,NNE,24,0.0,6.0,39,0.00,,,0.00,,2013-04-09 23:02:00,
2013-04-09 16:12:00,70.0,43.0,30.10,SE,146,1.0,6.0,38,0.00,,,0.00,,2013-04-09 23:12:00,
2013-04-09 16:22:00,70.0,43.0,30.10,SE,146,1.0,6.0,38,0.00,,,0.00,,2013-04-09 23:22:00,
2013-04-09 16:32:00,70.0,45.0,30.09,South,189,0.0,6.0,41,0.00,,,0.00,,2013-04-09 23:32:00,
2013-04-09 16:42:00,70.0,45.0,30.09,South,189,0.0,6.0,41,0.00,,,0.00,,2013-04-09 23:42:00,
2013-04-09 16:52:00,71.0,45.0,30.09,ESE,107,1.0,6.0,39,0.00,,,0.00,,2013-04-09 23:52:00,
2013-04-09 17:02:00,71.0,45.0,30.09,ESE,107,1.0,6.0,39,0.00,,,0.00,,2013-04-10 00:02:00,
2013-04-09 17:11:00,71.0,45.0,30.09,ESE,107,1.0,6.0,39,0.00,,,0.00,,2013-04-10 00:11:00,
2013-04-09 17:21:00,70.0,44.0,30.09,North,5,3.0,7.0,39,0.00,,,0.00,,2013-04-10 00:21:00,
2013-04-09 17:32:00,71.0,47.0,30.09,West,269,0.0,4.0,42,0.00,,,0.00,,2013-04-10 00:32:00,
2013-04-09 17:41:00,71.0,47.0,30.09,West,269,0.0,4.0,42,0.00,,,0.00,,2013-04-10 00:41:00,
2013-04-09 17:52:00,70.0,46.0,30.09,SW,215,2.0,5.0,42,0.00,,,0.00,,2013-04-10 00:52:00,
2013-04-09 18:01:00,68.0,46.0,30.10,SW,229,3.0,7.0,45,0.00,,,0.00,,2013-04-10 01:01:00,
2013-04-09 18:11:00,66.0,46.0,30.10,WSW,237,1.0,6.0,48,0.00,,,0.00,,2013-04-10 01:11:00,
2013-04-09 18:22:00,66.0,46.0,30.10,WSW,237,1.0,6.0,48,0.00,,,0.00,,2013-04-10 01:22:00,
2013-04-09 18:31:00,65.0,47.0,30.10,SW,228,0.0,2.0,52,0.00,,,0.00,,2013-04-10 01:31:00,
2013-04-09 18:42:00,65.0,47.0,30.10,SW,228,0.0,2.0,52,0.00,,,0.00,,2013-04-10 01:42:00,
2013-04-09 18:52:00,63.0,48.0,30.10,SW,235,2.0,4.0,57,0.00,,,0.00,,2013-04-10 01:52:00,
2013-04-09 19:01:00,61.0,46.0,30.10,SW,234,1.0,4.0,58,0.00,,,0.00,,2013-04-10 02:01:00,
2013-04-09 19:11:00,61.0,46.0,30.10,SW,234,1.0,4.0,58,0.00,,,0.00,,2013-04-10 02:11:00,
2013-04-09 19:22:00,61.0,46.0,30.11,SW,234,0.0,2.0,57,0.00,,,0.00,,2013-04-10 02:22:00,
2013-04-09 19:32:00,60.0,46.0,30.11,SW,234,0.0,2.0,60,0.00,,,0.00,,2013-04-10 02:32:00,
2013-04-09 19:42:00,60.0,46.0,30.11,SW,234,0.0,2.0,60,0.00,,,0.00,,2013-04-10 02:42:00,
2013-04-09 19:52:00,59.0,46.0,30.11,SW,224,1.0,2.0,63,0.00,,,0.00,,2013-04-10 02:52:00,
2013-04-09 20:01:00,58.0,47.0,30.11,WSW,247,0.0,2.0,66,0.00,,,0.00,,2013-04-10 03:01:00,
2013-04-09 20:12:00,58.0,47.0,30.11,WSW,247,0.0,2.0,66,0.00,,,0.00,,2013-04-10 03:12:00,
2013-04-09 20:22:00,56.0,46.0,30.12,WSW,247,0.0,1.0,69,0.00,,,0.00,,2013-04-10 03:22:00,
2013-04-09 20:32:00,55.0,46.0,30.12,WSW,247,0.0,2.0,72,0.00,,,0.00,,2013-04-10 03:32:00,
2013-04-09 20:43:00,55.0,46.0,30.12,WSW,247,0.0,2.0,72,0.00,,,0.00,,2013-04-10 03:43:00,
2013-04-09 20:52:00,54.0,46.0,30.13,WSW,247,0.0,2.0,74,0.00,,,0.00,,2013-04-10 03:52:00,
2013-04-09 21:02:00,53.0,46.0,30.13,WSW,247,1.0,2.0,76,0.00,,,0.00,,2013-04-10 04:02:00,
2013-04-09 21:12:00,53.0,46.0,30.13,WSW,247,1.0,2.0,76,0.00,,,0.00,,2013-04-10 04:12:00,
2013-04-09 21:22:00,53.0,46.0,30.14,WSW,247,1.0,2.0,78,0.00,,,0.00,,2013-04-10 04:22:00,
2013-04-09 21:32:00,52.0,46.0,30.14,WSW,247,1.0,2.0,79,0.00,,,0.00,,2013-04-10 04:32:00,
2013-04-09 21:42:00,52.0,46.0,30.14,WSW,247,1.0,2.0,79,0.00,,,0.00,,2013-04-10 04:42:00,
2013-04-09 21:53:00,52.0,46.0,30.14,WSW,247,0.0,2.0,80,0.00,,,0.00,,2013-04-10 04:53:00,
2013-04-09 22:02:00,51.0,45.0,30.14,WSW,247,1.0,3.0,81,0.00,,,0.00,,2013-04-10 05:02:00,
2013-04-09 22:12:00,51.0,45.0,30.14,WSW,247,1.0,3.0,81,0.00,,,0.00,,2013-04-10 05:12:00,
2013-04-09 22:22:00,51.0,45.0,30.15,WSW,246,0.0,2.0,81,0.00,,,0.00,,2013-04-10 05:22:00,
2013-04-09 22:32:00,51.0,46.0,30.15,SW,234,1.0,5.0,82,0.00,,,0.00,,2013-04-10 05:32:00,
2013-04-09 22:42:00,51.0,46.0,30.15,SW,234,1.0,5.0,82,0.00,,,0.00,,2013-04-10 05:42:00,
2013-04-09 22:53:00,51.0,46.0,30.15,SW,227,0.0,2.0,82,0.00,,,0.00,,2013-04-10 05:53:00,
2013-04-09 23:02:00,50.0,45.0,30.15,SW,227,1.0,2.0,83,0.00,,,0.00,,2013-04-10 06:02:00,
2013-04-09 23:12:00,50.0,45.0,30.15,SW,227,0.0,2.0,83,0.00,,,0.00,,2013-04-10 06:12:00,
2013-04-09 23:21:00,50.0,45.0,30.15,SW,227,0.0,2.0,83,0.00,,,0.00,,2013-04-10 06:21:00,
2013-04-09 23:32:00,50.0,45.0,30.14,SW,227,0.0,4.0,83,0.00,,,0.00,,2013-04-10 06:32:00,
2013-04-09 23:42:00,50.0,45.0,30.14,SW,227,0.0,4.0,83,0.00,,,0.00,,2013-04-10 06:42:00,
2013-04-09 23:52:00,50.0,45.0,30.15,SW,227,1.0,2.0,84,0.00,,,0.00,,2013-04-10 06:52:00,